createdAt,value
2022-08-16T04:44:32.965Z,16.25
2022-08-16T04:47:49.533Z,16.28
2022-08-16T04:51:00.248Z,16.34
2022-08-16T04:54:04.088Z,16.34
2022-08-16T04:57:07.137Z,16.49
2022-08-16T05:00:32.423Z,16.49
2022-08-16T05:03:41.707Z,16.30
2022-08-16T05:07:03.738Z,16.63
2022-08-16T05:10:29.769Z,16.85
2022-08-16T05:13:40.557Z,16.97
2022-08-16T05:16:46.781Z,16.99
2022-08-16T05:19:58.133Z,17.09
2022-08-16T05:23:02.040Z,17.50
2022-08-16T05:26:05.615Z,17.26
2022-08-16T05:29:24.858Z,17.35
2022-08-16T05:32:47.377Z,17.63
2022-08-16T05:35:54.818Z,18.03
2022-08-16T05:38:59.594Z,18.46
2022-08-16T05:42:03.100Z,18.92
2022-08-16T05:45:07.185Z,19.28
2022-08-16T05:48:10.394Z,19.68
2022-08-16T05:51:37.660Z,19.98
2022-08-16T05:54:46.769Z,19.88
2022-08-16T05:57:52.591Z,19.83
2022-08-16T06:00:58.151Z,20.13
2022-08-16T06:04:01.649Z,20.16
2022-08-16T06:07:09.072Z,20.42
2022-08-16T06:10:32.522Z,20.86
2022-08-16T06:13:42.142Z,21.28
2022-08-16T06:16:50.724Z,21.43
2022-08-16T06:19:54.304Z,21.71
2022-08-16T06:23:03.394Z,21.79
2022-08-16T06:26:08.449Z,22.07
2022-08-16T06:29:11.878Z,22.31
2022-08-16T06:32:27.039Z,22.67
2022-08-16T06:35:35.426Z,22.95
2022-08-16T06:38:55.296Z,23.20
2022-08-16T06:42:00.373Z,23.26
2022-08-16T17:06:58.387Z,27.60
2022-08-16T17:10:03.938Z,27.56
2022-08-16T17:13:09.939Z,27.55
2022-08-16T17:16:18.728Z,27.41
2022-08-16T17:19:23.875Z,27.42
2022-08-16T17:22:32.883Z,27.41
2022-08-16T17:25:36.790Z,27.22
2022-08-16T17:29:02.044Z,27.25
2022-08-16T17:32:46.452Z,27.24
2022-08-16T17:35:36.267Z,27.19
2022-08-16T17:38:45.899Z,26.94
2022-08-16T17:41:49.110Z,26.99
2022-08-16T17:44:54.607Z,26.92
2022-08-16T17:47:58.226Z,26.83
2022-08-16T17:51:02.769Z,26.77
2022-08-16T17:54:06.804Z,26.60
2022-08-16T17:57:09.514Z,26.53
2022-08-16T18:00:20.411Z,26.39
2022-08-16T18:04:07.180Z,26.29
2022-08-16T18:06:58.446Z,26.11
2022-08-16T18:10:01.661Z,25.95
2022-08-16T18:13:10.479Z,25.77
2022-08-16T18:16:16.750Z,25.75
2022-08-16T18:19:19.717Z,25.50
2022-08-16T18:22:30.216Z,25.38
2022-08-16T18:25:34.764Z,25.17
2022-08-16T18:28:38.907Z,25.07
2022-08-16T18:31:42.246Z,24.91
2022-08-16T18:34:45.491Z,24.75
2022-08-16T18:37:48.589Z,24.54
2022-08-16T18:40:52.746Z,24.50
2022-08-16T18:44:22.947Z,24.30
2022-08-16T18:47:18.717Z,24.21
2022-08-16T18:50:26.382Z,24.14
2022-08-16T18:53:29.463Z,24.07
2022-08-16T18:56:56.155Z,23.99
2022-08-16T18:59:55.760Z,23.95
2022-08-16T19:03:08.525Z,24.07
2022-08-16T19:06:14.248Z,23.93
2022-08-16T19:09:17.271Z,23.91
2022-08-16T19:12:38.343Z,23.79
2022-08-16T19:15:45.322Z,23.87
2022-08-16T19:18:49.698Z,24.30
2022-08-16T19:21:52.515Z,24.17
2022-08-16T19:24:57.822Z,24.04
2022-08-16T19:28:01.581Z,23.83
2022-08-16T19:31:29.758Z,23.69
2022-08-16T19:34:33.677Z,23.57
2022-08-16T19:37:46.625Z,23.44
2022-08-16T19:40:54.288Z,23.31
2022-08-16T19:43:57.270Z,23.22
2022-08-16T19:47:00.533Z,23.07
2022-08-16T19:50:04.251Z,23.02
2022-08-16T19:53:12.941Z,23.05
2022-08-16T19:56:25.840Z,22.82
2022-08-16T19:59:39.598Z,22.62
2022-08-16T20:02:47.243Z,22.61
2022-08-16T20:05:51.604Z,22.43
2022-08-16T20:08:54.417Z,22.51
2022-08-16T20:11:59.196Z,22.26
2022-08-16T20:15:01.910Z,22.23
2022-08-16T20:18:17.174Z,22.12
2022-08-16T20:21:28.479Z,22.10
2022-08-16T20:24:35.635Z,22.05
2022-08-16T20:27:40.570Z,21.87
2022-08-16T20:30:45.310Z,21.86
2022-08-16T20:33:48.074Z,21.82
2022-08-16T20:36:51.121Z,21.78
2022-08-16T20:40:28.230Z,21.78
2022-08-16T20:43:19.138Z,21.61
2022-08-16T20:46:22.310Z,21.59
2022-08-16T20:49:25.323Z,21.46
2022-08-16T20:52:28.319Z,21.42
2022-08-16T20:55:33.815Z,21.35
2022-08-16T20:58:37.632Z,21.30
2022-08-16T21:01:46.366Z,21.27
2022-08-16T21:04:53.891Z,21.20
2022-08-16T21:07:56.889Z,21.09
2022-08-16T21:11:04.247Z,21.05
2022-08-16T21:14:10.921Z,21.14
2022-08-16T21:17:15.987Z,21.20
2022-08-16T21:20:22.779Z,21.20
2022-08-16T21:23:25.571Z,21.15
2022-08-16T21:26:28.503Z,21.13
2022-08-16T21:29:41.881Z,21.18
2022-08-16T21:32:46.213Z,21.13
2022-08-16T21:35:49.438Z,21.33
2022-08-16T21:38:52.888Z,21.39
2022-08-16T21:41:55.675Z,21.47
2022-08-16T21:44:58.637Z,21.52
2022-08-16T21:48:01.782Z,21.52
2022-08-16T21:51:12.182Z,21.55
2022-08-16T21:54:16.047Z,21.52
2022-08-16T21:57:22.575Z,21.45
2022-08-16T22:00:27.226Z,21.30
2022-08-16T22:03:32.957Z,21.24
2022-08-16T22:06:39.207Z,21.02
2022-08-16T22:09:43.247Z,20.77
2022-08-16T22:12:46.443Z,20.77
2022-08-16T22:15:54.591Z,20.66
2022-08-16T22:18:57.346Z,20.58
2022-08-16T22:22:01.128Z,20.56
2022-08-16T22:25:04.107Z,20.48
2022-08-16T22:28:07.295Z,20.38
2022-08-16T22:31:11.111Z,20.28
2022-08-16T22:34:14.636Z,20.26
2022-08-16T22:37:17.556Z,20.14
2022-08-16T22:40:26.401Z,20.07
2022-08-16T22:43:29.915Z,20.05
2022-08-16T22:46:34.939Z,19.98
2022-08-16T22:49:37.871Z,19.93
2022-08-16T22:52:57.111Z,19.93
2022-08-16T22:56:00.117Z,19.84
2022-08-16T22:59:03.623Z,19.81
2022-08-16T23:02:09.553Z,19.72
2022-08-16T23:05:12.507Z,19.76
2022-08-16T23:08:39.510Z,19.63
2022-08-16T23:11:40.974Z,19.53
2022-08-16T23:14:43.583Z,19.47
2022-08-16T23:17:49.875Z,19.39
2022-08-16T23:21:00.268Z,19.39
2022-08-16T23:24:03.423Z,19.34
2022-08-16T23:27:06.174Z,19.27
2022-08-16T23:30:09.812Z,19.22
2022-08-16T23:33:15.288Z,19.18
2022-08-16T23:36:18.316Z,19.08
2022-08-16T23:39:21.085Z,19.11
2022-08-16T23:42:52.372Z,19.04
2022-08-16T23:45:58.452Z,19.12
2022-08-16T23:49:57.794Z,19.07
2022-08-16T23:52:54.788Z,18.93
2022-08-16T23:55:56.342Z,18.88
2022-08-16T23:59:02.901Z,18.86
